createdAt,value
2017-11-24T00:01:34.056Z,12.10
2017-11-24T00:04:02.559Z,11.80
2017-11-24T00:06:30.396Z,11.80
2017-11-24T00:08:58.746Z,11.50
2017-11-24T00:11:26.308Z,11.50
2017-11-24T00:13:54.370Z,11.30
2017-11-24T00:16:22.120Z,11.20
2017-11-24T00:18:50.937Z,11.00
2017-11-24T00:21:19.416Z,10.80
2017-11-24T00:23:48.371Z,10.60
2017-11-24T00:26:16.748Z,10.60
2017-11-24T00:28:44.841Z,10.60
2017-11-24T00:31:12.703Z,10.50
2017-11-24T00:33:40.460Z,10.50
2017-11-24T00:36:08.751Z,10.40
2017-11-24T00:38:36.669Z,10.40
2017-11-24T00:41:05.045Z,10.30
2017-11-24T00:43:35.831Z,10.20
2017-11-24T00:46:04.531Z,10.20
2017-11-24T00:48:32.947Z,10.40
2017-11-24T00:51:00.723Z,10.50
2017-11-24T00:53:29.295Z,10.90
2017-11-24T00:55:57.823Z,10.90
2017-11-24T00:58:26.225Z,11.00
2017-11-24T01:00:54.069Z,11.20
2017-11-24T01:03:22.244Z,11.30
2017-11-24T01:05:50.898Z,11.40
2017-11-24T01:08:19.369Z,11.50
2017-11-24T01:10:47.500Z,11.60
2017-11-24T01:13:15.863Z,11.70
2017-11-24T01:15:44.232Z,11.80
2017-11-24T01:18:13.175Z,11.90
2017-11-24T01:20:40.896Z,11.90
2017-11-24T01:23:08.777Z,11.90
2017-11-24T01:25:36.524Z,12.00
2017-11-24T01:28:04.450Z,12.00
2017-11-24T01:30:32.529Z,12.00
2017-11-24T01:33:00.869Z,12.10
2017-11-24T01:35:28.507Z,12.10
2017-11-24T01:37:56.212Z,12.10
2017-11-24T01:40:23.781Z,12.10
2017-11-24T01:42:51.392Z,12.10
2017-11-24T01:45:19.093Z,12.10
2017-11-24T01:47:46.670Z,12.10
2017-11-24T01:50:14.272Z,12.10
2017-11-24T01:52:41.840Z,12.10
2017-11-24T01:55:09.459Z,12.10
2017-11-24T01:57:37.307Z,12.10
2017-11-24T02:00:04.881Z,12.10
2017-11-24T02:02:32.472Z,12.10
2017-11-24T02:05:00.055Z,12.10
2017-11-24T02:07:27.752Z,12.10
2017-11-24T02:09:55.350Z,12.10
2017-11-24T02:12:22.958Z,12.10
2017-11-24T02:14:50.535Z,12.10
2017-11-24T02:17:18.407Z,12.00
2017-11-24T02:19:46.165Z,12.00
2017-11-24T02:22:13.726Z,12.00
2017-11-24T02:24:41.361Z,12.00
2017-11-24T02:27:08.924Z,12.00
2017-11-24T02:29:36.716Z,12.10
2017-11-24T02:32:04.374Z,12.10
2017-11-24T02:34:32.738Z,12.10
2017-11-24T02:37:00.338Z,12.10
2017-11-24T02:39:28.077Z,12.10
2017-11-24T02:41:55.676Z,12.10
2017-11-24T02:44:23.494Z,12.10
2017-11-24T02:46:52.701Z,12.20
2017-11-24T02:49:20.257Z,12.20
2017-11-24T02:51:47.827Z,12.20
2017-11-24T02:54:15.620Z,12.10
2017-11-24T02:56:43.233Z,12.00
2017-11-24T02:59:10.801Z,12.00
2017-11-24T03:01:38.430Z,12.00
2017-11-24T03:04:06.044Z,12.00
2017-11-24T03:06:33.624Z,12.00
2017-11-24T03:09:01.367Z,12.00
2017-11-24T03:11:28.996Z,12.00
2017-11-24T03:13:56.561Z,12.00
2017-11-24T03:16:24.266Z,12.00
2017-11-24T03:18:52.605Z,12.00
2017-11-24T03:21:20.212Z,12.00
2017-11-24T03:23:48.340Z,12.00
2017-11-24T03:26:16.049Z,12.00
2017-11-24T03:28:43.651Z,12.00
2017-11-24T03:31:11.683Z,12.00
2017-11-24T03:33:39.280Z,12.00
2017-11-24T03:36:06.840Z,12.00
2017-11-24T03:38:34.468Z,12.00
2017-11-24T03:41:02.063Z,12.00
2017-11-24T03:43:30.166Z,12.00
2017-11-24T03:45:57.823Z,12.00
2017-11-24T03:48:25.384Z,11.90
2017-11-24T03:50:53.158Z,11.90
2017-11-24T03:53:20.732Z,11.80
2017-11-24T03:55:49.064Z,11.70
2017-11-24T03:58:16.619Z,11.70
2017-11-24T04:00:44.232Z,11.70
2017-11-24T04:03:12.111Z,11.70
2017-11-24T04:05:40.716Z,11.70
2017-11-24T04:08:08.308Z,11.70
2017-11-24T04:10:35.871Z,11.70
2017-11-24T04:13:03.908Z,11.70
2017-11-24T04:15:31.579Z,11.70
2017-11-24T04:17:59.180Z,11.60
2017-11-24T04:20:27.661Z,11.60
2017-11-24T04:22:55.655Z,11.50
2017-11-24T04:25:23.235Z,11.50
2017-11-24T04:27:50.835Z,11.50
2017-11-24T04:30:18.399Z,11.40
2017-11-24T04:32:47.468Z,11.10
2017-11-24T04:35:15.035Z,11.10
2017-11-24T04:37:42.892Z,11.00
2017-11-24T04:40:10.503Z,10.90
2017-11-24T04:42:38.095Z,10.80
2017-11-24T04:45:05.660Z,10.70
2017-11-24T04:47:33.267Z,10.60
2017-11-24T04:50:00.843Z,10.60
2017-11-24T04:52:28.524Z,10.50
2017-11-24T04:54:56.120Z,10.60
2017-11-24T04:57:23.708Z,10.60
2017-11-24T04:59:52.159Z,10.80
2017-11-24T05:02:19.746Z,10.80
2017-11-24T05:04:47.297Z,10.90
2017-11-24T05:07:15.094Z,11.00
2017-11-24T05:09:42.658Z,11.10
2017-11-24T05:12:11.028Z,11.20
2017-11-24T05:14:38.617Z,11.20
2017-11-24T05:17:06.320Z,11.20
2017-11-24T05:19:33.926Z,11.30
2017-11-24T05:22:02.294Z,11.30
2017-11-24T05:24:30.671Z,11.30
2017-11-24T05:26:58.326Z,11.30
2017-11-24T05:29:25.890Z,11.30
2017-11-24T05:31:54.270Z,11.20
2017-11-24T05:34:21.837Z,11.10
2017-11-24T05:36:49.411Z,11.10
2017-11-24T05:39:17.746Z,11.00
2017-11-24T05:41:46.049Z,11.00
2017-11-24T05:44:13.695Z,11.00
2017-11-24T05:46:41.269Z,11.00
2017-11-24T05:49:18.929Z,11.00
2017-11-24T05:51:46.578Z,11.00
2017-11-24T05:54:14.205Z,11.00
2017-11-24T05:56:41.827Z,11.10
2017-11-24T05:59:09.450Z,11.10
2017-11-24T06:01:37.101Z,11.20
2017-11-24T06:04:05.553Z,11.30
2017-11-24T06:06:33.211Z,11.30
2017-11-24T06:09:00.829Z,11.30
2017-11-24T06:11:28.456Z,11.30
2017-11-24T06:13:56.061Z,11.30
2017-11-24T06:16:23.684Z,11.30
2017-11-24T06:18:52.020Z,11.40
2017-11-24T06:21:19.595Z,11.40
2017-11-24T06:23:47.190Z,11.40
2017-11-24T06:26:14.794Z,11.40
2017-11-24T06:28:42.374Z,11.40
2017-11-24T06:31:09.989Z,11.40
2017-11-24T06:33:37.613Z,11.40
2017-11-24T06:36:06.540Z,11.30
2017-11-24T06:38:38.569Z,11.40
2017-11-24T06:41:06.205Z,11.30
2017-11-24T06:43:33.825Z,11.30
2017-11-24T06:46:01.542Z,11.40
2017-11-24T06:48:29.943Z,11.40
2017-11-24T06:50:57.691Z,11.40
2017-11-24T06:53:25.298Z,11.40
2017-11-24T06:55:53.018Z,11.40
2017-11-24T06:58:20.682Z,11.40
2017-11-24T07:00:48.362Z,11.40
2017-11-24T07:03:15.991Z,11.40
2017-11-24T07:05:43.622Z,11.50
2017-11-24T07:08:11.809Z,11.50
2017-11-24T07:10:39.380Z,11.50
2017-11-24T07:13:07.002Z,11.50
2017-11-24T07:15:34.749Z,11.50
2017-11-24T07:18:03.205Z,11.60
2017-11-24T07:20:31.549Z,11.60
2017-11-24T07:22:59.148Z,11.50
2017-11-24T07:25:26.971Z,11.60
2017-11-24T07:27:55.382Z,11.60
2017-11-24T07:30:23.016Z,11.60
2017-11-24T07:32:50.572Z,11.60
2017-11-24T07:35:18.172Z,11.60
2017-11-24T07:37:47.402Z,11.70
2017-11-24T07:40:15.780Z,11.80
2017-11-24T07:42:43.376Z,11.80
2017-11-24T07:45:10.997Z,11.80
2017-11-24T07:47:38.590Z,11.90
2017-11-24T07:50:06.205Z,11.90
2017-11-24T07:52:34.436Z,11.90
2017-11-24T07:55:02.053Z,12.00
2017-11-24T07:57:29.649Z,12.00
2017-11-24T07:59:57.315Z,12.00
2017-11-24T08:02:24.917Z,12.00
2017-11-24T08:04:52.597Z,12.00
2017-11-24T08:07:20.180Z,12.10
2017-11-24T08:09:47.795Z,12.20
2017-11-24T08:12:15.555Z,12.20
2017-11-24T08:14:43.136Z,12.20
2017-11-24T08:17:10.716Z,12.30
2017-11-24T08:19:38.286Z,12.40
2017-11-24T08:22:06.247Z,12.60
2017-11-24T08:24:33.870Z,12.60
2017-11-24T08:27:01.498Z,12.70
2017-11-24T08:29:29.097Z,12.70
2017-11-24T08:31:56.819Z,12.80
2017-11-24T08:34:24.613Z,12.70
2017-11-24T08:36:52.179Z,12.70
2017-11-24T08:39:19.729Z,12.60
2017-11-24T08:41:47.299Z,12.60
2017-11-24T08:44:14.966Z,12.60
2017-11-24T08:46:48.245Z,12.80
2017-11-24T08:49:21.405Z,13.00
2017-11-24T08:51:49.012Z,13.00
2017-11-24T08:54:16.651Z,13.00
2017-11-24T08:56:44.300Z,12.90
2017-11-24T08:59:12.367Z,12.80
2017-11-24T09:01:40.179Z,12.80
2017-11-24T09:04:07.847Z,12.70
2017-11-24T09:06:35.418Z,12.60
2017-11-24T09:09:03.035Z,12.70
2017-11-24T09:11:30.691Z,12.70
2017-11-24T09:13:58.457Z,12.80
2017-11-24T09:16:26.128Z,12.90
2017-11-24T09:18:53.806Z,12.90
2017-11-24T09:21:21.451Z,12.80
2017-11-24T09:23:49.074Z,12.80
2017-11-24T09:26:17.076Z,12.80
2017-11-24T09:28:44.660Z,12.90
2017-11-24T09:31:12.503Z,12.90
2017-11-24T09:33:40.124Z,13.00
2017-11-24T09:36:07.826Z,13.10
2017-11-24T09:38:35.513Z,13.30
2017-11-24T09:41:03.087Z,13.50
2017-11-24T09:43:30.681Z,13.60
2017-11-24T09:45:58.299Z,13.60
2017-11-24T09:48:25.867Z,13.70
2017-11-24T09:50:53.458Z,13.60
2017-11-24T09:53:21.046Z,13.60
2017-11-24T09:55:48.656Z,13.60
2017-11-24T09:58:17.028Z,14.10
2017-11-24T10:00:44.616Z,14.10
2017-11-24T10:03:12.279Z,14.20
2017-11-24T10:05:39.971Z,14.40
2017-11-24T10:08:07.596Z,14.70
2017-11-24T10:10:35.245Z,14.90
2017-11-24T10:13:02.959Z,14.90
2017-11-24T10:15:30.689Z,14.90
2017-11-24T10:17:58.258Z,14.70
2017-11-24T10:20:25.949Z,14.60
2017-11-24T10:22:53.513Z,14.70
2017-11-24T10:25:21.114Z,14.70
2017-11-24T10:27:49.494Z,14.80
2017-11-24T10:30:17.081Z,14.80
2017-11-24T10:32:44.694Z,15.00
2017-11-24T10:35:12.376Z,15.10
2017-11-24T10:37:41.510Z,14.90
2017-11-24T10:40:10.143Z,14.90
2017-11-24T10:42:38.285Z,15.00
2017-11-24T10:45:06.415Z,15.10
2017-11-24T10:47:34.940Z,15.20
2017-11-24T10:50:03.544Z,15.30
2017-11-24T10:52:32.214Z,15.20
2017-11-24T10:55:00.714Z,15.20
2017-11-24T10:57:29.036Z,15.20
2017-11-24T10:59:56.734Z,15.20
2017-11-24T11:02:25.416Z,15.10
2017-11-24T11:04:54.193Z,15.00
2017-11-24T11:07:22.019Z,14.90
2017-11-24T11:09:50.732Z,15.10
2017-11-24T11:12:18.660Z,15.10
2017-11-24T11:14:46.477Z,15.20
2017-11-24T11:17:14.046Z,15.20
2017-11-24T11:19:41.606Z,15.20
2017-11-24T11:22:09.234Z,15.10
2017-11-24T11:24:37.564Z,15.20
2017-11-24T11:27:05.213Z,15.20
2017-11-24T11:29:32.978Z,15.20
2017-11-24T11:32:00.914Z,15.30
2017-11-24T11:34:29.081Z,15.40
2017-11-24T11:36:56.656Z,15.40
2017-11-24T11:39:24.222Z,15.50
2017-11-24T11:41:51.857Z,15.50
2017-11-24T11:44:20.183Z,15.50
2017-11-24T11:46:47.855Z,15.50
2017-11-24T11:49:15.781Z,15.60
2017-11-24T11:51:43.343Z,15.70
2017-11-24T11:54:11.513Z,15.80
2017-11-24T11:56:39.082Z,15.90
2017-11-24T11:59:06.637Z,15.90
2017-11-24T12:01:34.967Z,15.70
2017-11-24T12:04:02.571Z,15.70
2017-11-24T12:06:30.230Z,15.60
2017-11-24T12:08:58.512Z,15.50
2017-11-24T12:11:26.259Z,15.40
2017-11-24T12:13:54.675Z,15.30
2017-11-24T12:16:22.297Z,15.30
2017-11-24T12:18:49.872Z,15.20
2017-11-24T12:21:17.484Z,15.10
2017-11-24T12:23:45.047Z,15.10
2017-11-24T12:26:12.794Z,15.10
2017-11-24T12:28:40.368Z,15.20
2017-11-24T12:31:07.981Z,15.20
2017-11-24T12:33:36.402Z,15.20
2017-11-24T12:36:04.073Z,15.20
2017-11-24T12:38:31.637Z,15.10
2017-11-24T12:40:59.273Z,15.10
2017-11-24T12:43:26.863Z,15.00
2017-11-24T12:45:54.447Z,15.00
2017-11-24T12:48:22.978Z,14.90
2017-11-24T12:50:50.809Z,14.90
2017-11-24T12:53:18.521Z,14.80
2017-11-24T12:55:46.132Z,14.60
2017-11-24T12:58:14.486Z,14.40
2017-11-24T13:00:42.108Z,14.40
2017-11-24T13:03:09.754Z,14.30
2017-11-24T13:05:37.396Z,14.20
2017-11-24T13:08:05.604Z,14.10
2017-11-24T13:10:33.206Z,14.00
2017-11-24T13:13:00.778Z,13.90
2017-11-24T13:15:29.192Z,13.80
2017-11-24T13:17:56.800Z,13.90
2017-11-24T13:20:24.482Z,13.80
2017-11-24T13:22:52.074Z,13.80
2017-11-24T13:25:19.709Z,13.70
2017-11-24T13:27:47.473Z,13.70
2017-11-24T13:30:16.002Z,13.60
2017-11-24T13:32:43.670Z,13.60
2017-11-24T13:35:12.407Z,13.60
2017-11-24T13:37:40.785Z,13.50
2017-11-24T13:40:08.343Z,13.50
2017-11-24T13:42:36.615Z,13.50
2017-11-24T13:45:04.255Z,13.50
2017-11-24T13:47:31.896Z,13.50
2017-11-24T13:50:01.066Z,13.50
2017-11-24T13:52:28.645Z,13.50
2017-11-24T13:54:57.037Z,13.50
2017-11-24T13:57:25.007Z,13.50
2017-11-24T13:59:53.043Z,13.50
2017-11-24T14:02:25.342Z,13.40
2017-11-24T14:04:53.699Z,13.30
2017-11-24T14:07:22.116Z,13.30
2017-11-24T14:09:49.672Z,13.30
2017-11-24T14:12:17.253Z,13.20
2017-11-24T14:14:44.812Z,13.10
2017-11-24T14:17:12.457Z,13.10
2017-11-24T14:19:40.048Z,13.00
2017-11-24T14:22:08.233Z,12.90
2017-11-24T14:24:36.572Z,12.70
2017-11-24T14:27:04.176Z,12.70
2017-11-24T14:29:32.526Z,12.50
2017-11-24T14:32:00.114Z,12.40
2017-11-24T14:34:28.995Z,12.30
2017-11-24T14:36:56.610Z,12.30
2017-11-24T14:39:24.275Z,12.20
2017-11-24T14:41:51.910Z,12.10
2017-11-24T14:44:19.926Z,12.20
2017-11-24T14:46:47.775Z,12.10
2017-11-24T14:49:16.904Z,12.10
2017-11-24T14:51:45.968Z,12.00
2017-11-24T14:54:15.041Z,12.00
2017-11-24T14:56:43.523Z,12.00
2017-11-24T14:59:12.129Z,11.90
2017-11-24T15:01:41.102Z,11.70
2017-11-24T15:04:10.592Z,11.70
2017-11-24T15:06:41.334Z,11.70
2017-11-24T15:09:09.781Z,11.70
2017-11-24T15:11:37.444Z,11.70
2017-11-24T15:14:05.781Z,11.70
2017-11-24T15:16:33.545Z,11.70
2017-11-24T15:19:01.925Z,11.70
2017-11-24T15:21:30.918Z,11.70
2017-11-24T15:23:59.112Z,11.60
2017-11-24T15:26:26.897Z,11.60
2017-11-24T15:28:55.549Z,11.60
2017-11-24T15:31:23.138Z,11.60
2017-11-24T15:33:50.787Z,11.50
2017-11-24T15:36:18.415Z,11.60
2017-11-24T15:38:46.111Z,11.50
2017-11-24T15:41:13.725Z,11.40
2017-11-24T15:43:41.373Z,11.40
2017-11-24T15:46:09.081Z,11.40
2017-11-24T15:48:36.648Z,11.50
2017-11-24T15:51:04.254Z,11.40
2017-11-24T15:53:32.069Z,11.40
2017-11-24T15:55:59.665Z,11.50
2017-11-24T15:58:27.421Z,11.50
2017-11-24T16:00:55.013Z,11.40
2017-11-24T16:03:23.149Z,11.30
2017-11-24T16:05:50.711Z,11.30
2017-11-24T16:08:18.347Z,11.20
2017-11-24T16:10:45.968Z,11.20
2017-11-24T16:13:13.588Z,11.10
2017-11-24T16:15:42.134Z,11.00
2017-11-24T16:18:09.847Z,11.00
2017-11-24T16:20:37.421Z,10.90
2017-11-24T16:23:04.980Z,11.00
2017-11-24T16:25:32.688Z,10.90
2017-11-24T16:28:00.467Z,10.90
2017-11-24T16:30:28.230Z,10.90
2017-11-24T16:32:55.871Z,10.90
2017-11-24T16:35:23.928Z,10.90
2017-11-24T16:37:52.946Z,10.80
2017-11-24T16:40:20.620Z,10.80
2017-11-24T16:42:48.727Z,10.70
2017-11-24T16:45:17.285Z,10.70
2017-11-24T16:47:44.892Z,10.70
2017-11-24T16:50:13.593Z,10.60
2017-11-24T16:52:41.180Z,10.60
2017-11-24T16:55:08.781Z,10.60
2017-11-24T16:57:36.477Z,10.60
2017-11-24T17:00:04.925Z,10.60
2017-11-24T17:02:32.584Z,10.60
2017-11-24T17:05:00.143Z,10.60
2017-11-24T17:07:27.994Z,10.60
2017-11-24T17:09:56.162Z,10.60
2017-11-24T17:12:24.126Z,10.60
2017-11-24T17:14:51.760Z,10.50
2017-11-24T17:17:19.358Z,10.50
2017-11-24T17:19:48.340Z,10.40
2017-11-24T17:22:16.103Z,10.40
2017-11-24T17:24:43.773Z,10.40
2017-11-24T17:27:11.429Z,10.40
2017-11-24T17:29:39.057Z,10.40
2017-11-24T17:32:07.607Z,10.40
2017-11-24T17:34:35.234Z,10.40
2017-11-24T17:37:02.825Z,10.40
2017-11-24T17:39:30.445Z,10.40
2017-11-24T17:41:58.017Z,10.40
2017-11-24T17:44:25.609Z,10.30
2017-11-24T17:46:53.252Z,10.30
2017-11-24T17:49:21.041Z,10.30
2017-11-24T17:51:48.609Z,10.30
2017-11-24T17:54:18.064Z,10.20
2017-11-24T17:56:48.225Z,10.10
2017-11-24T17:59:15.885Z,10.10
2017-11-24T18:01:44.758Z,9.90
2017-11-24T18:04:12.411Z,9.80
2017-11-24T18:06:40.902Z,9.60
2017-11-24T18:09:08.880Z,9.50
2017-11-24T18:11:36.521Z,9.40
2017-11-24T18:14:04.388Z,9.20
2017-11-24T18:16:33.332Z,9.00
2017-11-24T18:19:01.798Z,8.90
2017-11-24T18:21:29.888Z,8.90
2017-11-24T18:23:58.082Z,8.90
2017-11-24T18:26:25.921Z,8.80
2017-11-24T18:28:54.699Z,8.70
2017-11-24T18:31:23.239Z,8.80
2017-11-24T18:33:50.861Z,8.80
2017-11-24T18:36:18.513Z,8.90
2017-11-24T18:38:46.948Z,9.20
2017-11-24T18:41:14.544Z,9.20
2017-11-24T18:43:42.145Z,9.40
2017-11-24T18:46:09.703Z,9.50
2017-11-24T18:48:37.417Z,9.50
2017-11-24T18:51:05.159Z,9.60
2017-11-24T18:53:33.511Z,9.70
2017-11-24T18:56:01.122Z,9.60
2017-11-24T18:58:28.792Z,9.70
2017-11-24T19:00:57.855Z,9.70
2017-11-24T19:03:25.516Z,9.70
2017-11-24T19:05:53.908Z,9.60
2017-11-24T19:08:21.696Z,9.60
2017-11-24T19:10:49.368Z,9.50
2017-11-24T19:13:17.286Z,9.40
2017-11-24T19:15:44.885Z,9.40
2017-11-24T19:18:13.432Z,9.20
2017-11-24T19:20:41.016Z,9.20
2017-11-24T19:23:08.628Z,9.10
2017-11-24T19:25:36.622Z,9.10
2017-11-24T19:28:04.254Z,9.10
2017-11-24T19:30:33.435Z,9.20
2017-11-24T19:33:01.016Z,9.20
2017-11-24T19:35:29.356Z,9.40
2017-11-24T19:37:57.194Z,9.30
2017-11-24T19:40:24.852Z,9.40
2017-11-24T19:42:53.760Z,9.50
2017-11-24T19:45:21.385Z,9.50
2017-11-24T19:47:49.056Z,9.50
2017-11-24T19:50:17.023Z,9.50
2017-11-24T19:52:44.589Z,9.50
2017-11-24T19:55:12.173Z,9.50
2017-11-24T19:57:39.776Z,9.60
2017-11-24T20:00:07.594Z,9.60
2017-11-24T20:02:38.060Z,9.70
2017-11-24T20:05:06.046Z,9.70
2017-11-24T20:07:34.667Z,9.80
2017-11-24T20:10:02.747Z,9.80
2017-11-24T20:12:32.348Z,9.90
2017-11-24T20:15:00.190Z,9.90
2017-11-24T20:17:28.057Z,9.90
2017-11-24T20:19:56.357Z,9.90
2017-11-24T20:22:24.206Z,9.90
2017-11-24T20:24:52.194Z,9.90
2017-11-24T20:27:21.349Z,9.90
2017-11-24T20:29:49.013Z,9.80
2017-11-24T20:32:17.380Z,9.90
2017-11-24T20:34:45.717Z,9.90
2017-11-24T20:37:13.339Z,9.90
2017-11-24T20:39:41.699Z,9.90
2017-11-24T20:42:10.099Z,9.90
2017-11-24T20:44:38.443Z,9.90
2017-11-24T20:47:06.124Z,9.80
2017-11-24T20:49:33.886Z,9.80
2017-11-24T20:52:01.664Z,9.70
2017-11-24T20:54:29.992Z,9.30
2017-11-24T20:56:57.620Z,9.30
2017-11-24T20:59:25.398Z,9.10
2017-11-24T21:01:53.006Z,8.90
2017-11-24T21:04:20.629Z,8.80
2017-11-24T21:06:48.273Z,8.60
2017-11-24T21:09:16.330Z,8.60
2017-11-24T21:11:44.034Z,8.60
2017-11-24T21:14:11.618Z,8.50
2017-11-24T21:16:39.204Z,8.50
2017-11-24T21:19:07.582Z,8.30
2017-11-24T21:21:35.342Z,8.30
2017-11-24T21:24:03.830Z,8.20
2017-11-24T21:26:32.200Z,8.10
2017-11-24T21:29:00.421Z,8.10
2017-11-24T21:31:28.785Z,8.10
2017-11-24T21:33:56.972Z,8.10
2017-11-24T21:36:24.600Z,8.10
2017-11-24T21:38:52.511Z,8.10
2017-11-24T21:41:20.174Z,8.20
2017-11-24T21:43:48.756Z,8.20
2017-11-24T21:46:16.415Z,8.30
2017-11-24T21:48:43.999Z,8.30
2017-11-24T21:51:11.779Z,8.40
2017-11-24T21:53:39.509Z,8.40
2017-11-24T21:56:07.337Z,8.50
2017-11-24T21:58:36.165Z,8.50
2017-11-24T22:01:04.647Z,8.60
2017-11-24T22:03:32.515Z,8.60
2017-11-24T22:06:00.593Z,8.60
2017-11-24T22:08:30.093Z,8.70
2017-11-24T22:10:58.389Z,8.70
2017-11-24T22:13:26.483Z,8.70
2017-11-24T22:15:54.165Z,8.70
2017-11-24T22:18:22.548Z,8.80
2017-11-24T22:20:51.082Z,8.70
2017-11-24T22:23:18.742Z,8.80
2017-11-24T22:25:46.904Z,8.80
2017-11-24T22:28:14.516Z,8.70
2017-11-24T22:30:42.135Z,8.70
2017-11-24T22:33:09.925Z,8.70
2017-11-24T22:35:37.761Z,8.80
2017-11-24T22:38:05.440Z,8.80
2017-11-24T22:40:33.376Z,8.70
2017-11-24T22:43:00.965Z,8.70
2017-11-24T22:45:28.549Z,8.70
2017-11-24T22:47:56.936Z,8.60
2017-11-24T22:50:24.856Z,8.60
2017-11-24T22:52:52.957Z,8.70
2017-11-24T22:55:24.977Z,8.80
2017-11-24T22:57:53.711Z,8.80
2017-11-24T23:00:21.767Z,8.80
2017-11-24T23:02:50.205Z,8.80
2017-11-24T23:05:17.795Z,8.80
2017-11-24T23:07:45.857Z,8.80
2017-11-24T23:10:14.581Z,8.90
2017-11-24T23:12:42.453Z,8.80
2017-11-24T23:15:10.272Z,8.90
2017-11-24T23:17:38.374Z,8.80
2017-11-24T23:20:06.957Z,8.80
2017-11-24T23:22:34.722Z,8.80
2017-11-24T23:25:02.488Z,8.90
2017-11-24T23:27:30.791Z,9.00
2017-11-24T23:29:59.264Z,9.10
2017-11-24T23:32:26.855Z,9.30
2017-11-24T23:34:54.575Z,9.30
2017-11-24T23:37:23.534Z,9.30
2017-11-24T23:39:51.227Z,9.30
2017-11-24T23:42:18.991Z,9.30
2017-11-24T23:44:46.751Z,9.30
2017-11-24T23:47:15.647Z,9.30
2017-11-24T23:49:44.559Z,9.40
2017-11-24T23:52:12.304Z,9.40
2017-11-24T23:54:41.466Z,9.40
2017-11-24T23:57:09.281Z,9.40
2017-11-24T23:59:36.942Z,9.40
